Time;durP1;ratioP1;P1;durP2;ratioP2;P2;SDS_P1;SDS_P2;PMS_P1;PMS_P2;Temp;Humidity;BMP_temperature;BMP_pressure;BME280_temperature;BME280_humidity;BME280_pressure;Samples;Min_cycle;Max_cycle;Signal;HPM_P1;HPM_P2
2022/10/19 00:01:37;;;;;;;;;;;10.20;99.90;;;;;;5088291;28;19930;-67
2022/10/19 00:04:04;;;;;;;;;;;10.10;99.90;;;;;;5087407;28;19931;-67
2022/10/19 00:06:32;;;;;;;;;;;10.10;99.90;;;;;;5085732;28;19924;-67
2022/10/19 00:08:59;;;;;;;;;;;10.10;99.90;;;;;;5092468;28;19956;-67
2022/10/19 00:11:28;;;;;;;;;;;10.10;99.90;;;;;;5090177;28;20290;-67
2022/10/19 00:13:55;;;;;;;;;;;10.10;99.90;;;;;;5086601;28;20275;-67
2022/10/19 00:16:23;;;;;;;;;;;10.10;99.90;;;;;;5086393;28;19924;-67
2022/10/19 00:18:55;;;;;;;;;;;10.10;99.90;;;;;;5093573;28;19924;-67
2022/10/19 00:21:22;;;;;;;;;;;10.10;99.90;;;;;;5084396;28;19985;-68
2022/10/19 00:23:49;;;;;;;;;;;10.10;99.90;;;;;;5085472;28;20007;-68
2022/10/19 00:26:15;;;;;;;;;;;10.10;99.90;;;;;;5089153;28;20007;-67
2022/10/19 00:28:45;;;;;;;;;;;10.00;99.90;;;;;;5084850;28;19931;-67
2022/10/19 00:31:13;;;;;;;;;;;10.00;99.90;;;;;;5085782;28;19924;-67
2022/10/19 00:33:40;;;;;;;;;;;10.10;99.90;;;;;;5087426;28;19986;-67
2022/10/19 00:36:14;;;;;;;;;;;10.00;99.90;;;;;;5091701;28;19924;-67
2022/10/19 00:38:41;;;;;;;;;;;10.00;99.90;;;;;;5090245;28;20382;-68
2022/10/19 00:41:08;;;;;;;;;;;10.00;99.90;;;;;;5085408;28;19931;-67
2022/10/19 00:46:29;;;;;;;;;;;10.00;99.90;;;;;;5150263;27;19916;-66
2022/10/19 00:48:58;;;;;;;;;;;9.90;99.90;;;;;;5113960;28;19935;-66
2022/10/19 00:51:25;;;;;;;;;;;9.90;99.90;;;;;;5120406;27;19924;-67
2022/10/19 00:53:52;;;;;;;;;;;9.90;99.90;;;;;;5114313;27;20360;-66
2022/10/19 00:56:19;;;;;;;;;;;9.90;99.90;;;;;;5104235;28;20290;-67
2022/10/19 00:58:45;;;;;;;;;;;9.90;99.90;;;;;;5100840;28;19930;-67
2022/10/19 01:01:14;;;;;;;;;;;9.80;99.90;;;;;;5095989;28;20015;-65
2022/10/19 01:03:42;;;;;;;;;;;9.80;99.90;;;;;;5109950;28;19924;-67
2022/10/19 01:06:09;;;;;;;;;;;9.80;99.90;;;;;;5106415;28;19930;-67
2022/10/19 01:08:36;;;;;;;;;;;9.80;99.90;;;;;;5113747;28;19946;-66
2022/10/19 01:11:10;;;;;;;;;;;9.80;99.90;;;;;;5108273;28;20404;-66
2022/10/19 01:13:40;;;;;;;;;;;9.70;99.90;;;;;;5122200;28;19929;-66
2022/10/19 01:16:12;;;;;;;;;;;9.80;99.90;;;;;;5105146;28;19946;-66
2022/10/19 01:18:42;;;;;;;;;;;9.80;99.90;;;;;;5116403;28;19923;-66
2022/10/19 01:21:17;;;;;;;;;;;9.70;99.90;;;;;;5109078;28;19924;-67
2022/10/19 01:23:55;;;;;;;;;;;9.70;99.90;;;;;;5110520;28;19924;-67
2022/10/19 01:26:33;;;;;;;;;;;9.70;99.90;;;;;;5115417;27;19930;-67
2022/10/19 01:29:04;;;;;;;;;;;9.70;99.90;;;;;;5110483;28;19931;-66
2022/10/19 01:31:35;;;;;;;;;;;9.70;99.90;;;;;;5111160;28;19924;-67
2022/10/19 01:34:04;;;;;;;;;;;9.70;99.90;;;;;;5111149;28;19930;-66
2022/10/19 01:36:35;;;;;;;;;;;9.70;99.90;;;;;;5110850;28;19931;-66
2022/10/19 01:39:06;;;;;;;;;;;9.70;99.90;;;;;;5100541;28;19924;-66
2022/10/19 01:41:37;;;;;;;;;;;9.60;99.90;;;;;;5108274;28;20324;-66
2022/10/19 01:44:08;;;;;;;;;;;9.60;99.90;;;;;;5104629;28;20019;-66
2022/10/19 01:46:38;;;;;;;;;;;9.60;99.90;;;;;;5113498;28;19924;-66
2022/10/19 01:49:08;;;;;;;;;;;9.60;99.90;;;;;;5102304;28;19931;-66
2022/10/19 01:51:37;;;;;;;;;;;9.50;99.90;;;;;;5117327;28;19979;-66
2022/10/19 01:54:05;;;;;;;;;;;9.50;99.90;;;;;;5112577;28;19924;-67
2022/10/19 01:56:33;;;;;;;;;;;9.50;99.90;;;;;;5104753;28;19924;-67
2022/10/19 01:59:02;;;;;;;;;;;9.40;99.90;;;;;;5092107;28;19924;-67
2022/10/19 02:01:30;;;;;;;;;;;9.40;99.90;;;;;;5092287;28;19930;-67
2022/10/19 02:03:59;;;;;;;;;;;9.40;99.90;;;;;;5097194;28;20018;-67
2022/10/19 02:06:26;;;;;;;;;;;9.40;99.90;;;;;;5103964;28;19930;-66
2022/10/19 02:08:53;;;;;;;;;;;9.40;99.90;;;;;;5103595;28;19923;-67
2022/10/19 02:11:20;;;;;;;;;;;9.40;99.90;;;;;;5098019;28;20010;-67
2022/10/19 02:13:49;;;;;;;;;;;9.40;99.90;;;;;;5097294;28;19925;-67
2022/10/19 02:16:18;;;;;;;;;;;9.40;99.90;;;;;;5100638;28;19927;-67
2022/10/19 02:18:47;;;;;;;;;;;9.40;99.90;;;;;;5092095;28;20392;-66
2022/10/19 02:21:15;;;;;;;;;;;9.40;99.90;;;;;;5083079;28;20290;-67
2022/10/19 02:23:42;;;;;;;;;;;9.40;99.90;;;;;;5095558;28;19928;-67
2022/10/19 02:26:09;;;;;;;;;;;9.30;99.90;;;;;;5096219;28;19930;-67
2022/10/19 02:28:36;;;;;;;;;;;9.30;99.90;;;;;;5095125;28;19946;-66
2022/10/19 02:31:03;;;;;;;;;;;9.30;99.90;;;;;;5095351;28;20010;-66
2022/10/19 02:33:29;;;;;;;;;;;9.40;99.90;;;;;;5093150;28;19924;-66
2022/10/19 02:35:56;;;;;;;;;;;9.30;99.90;;;;;;5099517;28;19945;-66
2022/10/19 02:38:24;;;;;;;;;;;9.30;99.90;;;;;;5100468;28;19924;-66
2022/10/19 02:40:57;;;;;;;;;;;9.30;99.90;;;;;;5096053;28;19930;-67
2022/10/19 02:43:25;;;;;;;;;;;9.30;99.90;;;;;;5096080;28;20598;-66
2022/10/19 02:45:54;;;;;;;;;;;9.30;99.90;;;;;;5097245;28;20062;-66
2022/10/19 02:48:22;;;;;;;;;;;9.30;99.90;;;;;;5106301;28;19939;-66
2022/10/19 02:50:50;;;;;;;;;;;9.30;99.90;;;;;;5096015;28;19930;-66
2022/10/19 02:53:17;;;;;;;;;;;9.30;99.90;;;;;;5100150;28;20282;-66
2022/10/19 02:55:46;;;;;;;;;;;9.30;99.90;;;;;;5094161;28;20188;-66
2022/10/19 02:58:13;;;;;;;;;;;9.30;99.90;;;;;;5097724;28;19932;-66
2022/10/19 03:00:40;;;;;;;;;;;9.30;99.90;;;;;;5097040;28;19930;-66
2022/10/19 03:03:06;;;;;;;;;;;9.30;99.90;;;;;;5095631;28;19924;-66
2022/10/19 03:05:33;;;;;;;;;;;9.30;99.90;;;;;;5092405;28;19946;-66
2022/10/19 03:08:00;;;;;;;;;;;9.40;99.90;;;;;;5095326;28;19928;-66
2022/10/19 03:10:26;;;;;;;;;;;9.30;99.90;;;;;;5089452;28;19924;-66
2022/10/19 03:12:56;;;;;;;;;;;9.30;99.90;;;;;;5100503;28;19976;-66
2022/10/19 03:15:27;;;;;;;;;;;9.30;99.90;;;;;;5103947;28;20301;-66
2022/10/19 03:17:54;;;;;;;;;;;9.30;99.90;;;;;;5085273;28;19984;-66
2022/10/19 03:20:21;;;;;;;;;;;9.30;99.90;;;;;;5094170;28;19943;-67
2022/10/19 03:22:47;;;;;;;;;;;9.30;99.90;;;;;;5091470;28;19963;-66
2022/10/19 03:25:14;;;;;;;;;;;9.30;99.90;;;;;;5093607;28;19930;-66
2022/10/19 03:27:41;;;;;;;;;;;9.20;99.90;;;;;;5091593;28;19932;-66
2022/10/19 03:30:09;;;;;;;;;;;9.20;99.90;;;;;;5092141;28;19930;-66
2022/10/19 03:32:36;;;;;;;;;;;9.20;99.90;;;;;;5099139;28;20408;-66
2022/10/19 03:35:02;;;;;;;;;;;9.30;99.90;;;;;;5094787;28;20001;-66
2022/10/19 03:37:29;;;;;;;;;;;9.20;99.90;;;;;;5094254;28;19924;-66
2022/10/19 03:39:56;;;;;;;;;;;9.20;99.90;;;;;;5100886;28;20293;-66
2022/10/19 03:42:22;;;;;;;;;;;9.20;99.90;;;;;;5097991;28;20037;-66
2022/10/19 03:44:49;;;;;;;;;;;9.20;99.90;;;;;;5093597;28;19923;-66
2022/10/19 03:47:17;;;;;;;;;;;9.20;99.90;;;;;;5092865;28;19954;-67
2022/10/19 03:49:44;;;;;;;;;;;9.20;99.90;;;;;;5095993;28;20305;-66
2022/10/19 03:52:10;;;;;;;;;;;9.20;99.90;;;;;;5093075;28;19933;-66
2022/10/19 03:54:37;;;;;;;;;;;9.20;99.90;;;;;;5097412;28;19924;-66
2022/10/19 03:57:03;;;;;;;;;;;9.20;99.90;;;;;;5094459;28;19924;-66
2022/10/19 03:59:30;;;;;;;;;;;9.20;99.90;;;;;;5082026;28;20010;-66
2022/10/19 04:01:57;;;;;;;;;;;9.10;99.90;;;;;;5094334;28;19924;-67
2022/10/19 04:04:25;;;;;;;;;;;9.10;99.90;;;;;;5094001;28;19962;-67
2022/10/19 04:06:52;;;;;;;;;;;9.10;99.90;;;;;;5090243;28;20238;-67
2022/10/19 04:09:20;;;;;;;;;;;9.10;99.90;;;;;;5092640;28;20027;-66
2022/10/19 04:11:47;;;;;;;;;;;9.10;99.90;;;;;;5094232;28;20002;-66
2022/10/19 04:14:14;;;;;;;;;;;9.10;99.90;;;;;;5099518;28;19959;-66
2022/10/19 04:16:44;;;;;;;;;;;9.10;99.90;;;;;;5092592;28;19935;-66
2022/10/19 04:19:13;;;;;;;;;;;9.10;99.90;;;;;;5091045;28;20015;-66
2022/10/19 04:21:42;;;;;;;;;;;9.10;99.90;;;;;;5095825;28;19932;-66
2022/10/19 04:24:10;;;;;;;;;;;9.10;99.90;;;;;;5089174;28;19984;-66
2022/10/19 04:26:38;;;;;;;;;;;9.10;99.90;;;;;;5090952;28;19931;-66
2022/10/19 04:29:05;;;;;;;;;;;9.00;99.90;;;;;;5095820;28;19972;-66
2022/10/19 04:31:32;;;;;;;;;;;9.00;99.90;;;;;;5093359;28;20059;-66
2022/10/19 04:33:58;;;;;;;;;;;9.00;99.90;;;;;;5105343;28;20019;-66
2022/10/19 04:36:25;;;;;;;;;;;9.00;99.90;;;;;;5096180;28;19928;-66
2022/10/19 04:38:53;;;;;;;;;;;8.90;99.90;;;;;;5091818;28;19967;-66
2022/10/19 04:41:20;;;;;;;;;;;9.00;99.90;;;;;;5090928;28;19967;-65
2022/10/19 04:43:47;;;;;;;;;;;9.00;99.90;;;;;;5092989;28;19924;-65
2022/10/19 04:46:16;;;;;;;;;;;9.00;99.90;;;;;;5093093;28;20135;-65
2022/10/19 04:48:43;;;;;;;;;;;9.00;99.90;;;;;;5092112;28;19928;-66
2022/10/19 04:51:10;;;;;;;;;;;9.00;99.90;;;;;;5097726;28;19932;-66
2022/10/19 04:53:37;;;;;;;;;;;9.00;99.90;;;;;;5081843;28;19946;-66
2022/10/19 04:56:06;;;;;;;;;;;8.90;99.90;;;;;;5092137;28;19928;-65
2022/10/19 04:58:33;;;;;;;;;;;8.90;99.90;;;;;;5092394;28;20378;-65
2022/10/19 05:01:06;;;;;;;;;;;8.90;99.90;;;;;;5091107;28;20386;-65
2022/10/19 05:03:32;;;;;;;;;;;8.90;99.90;;;;;;5096452;28;19927;-65
2022/10/19 05:05:59;;;;;;;;;;;8.90;99.90;;;;;;5091170;28;19931;-65
2022/10/19 05:08:26;;;;;;;;;;;8.80;99.90;;;;;;5091520;28;19924;-66
2022/10/19 05:10:53;;;;;;;;;;;8.80;99.90;;;;;;5094072;28;19942;-65
2022/10/19 05:13:20;;;;;;;;;;;8.80;99.90;;;;;;5095752;28;19924;-65
2022/10/19 05:15:55;;;;;;;;;;;8.80;99.90;;;;;;5089166;28;19924;-64
2022/10/19 05:18:21;;;;;;;;;;;8.80;99.90;;;;;;5082797;28;19931;-64
2022/10/19 05:20:48;;;;;;;;;;;8.80;99.90;;;;;;5089688;28;19977;-64
2022/10/19 05:23:15;;;;;;;;;;;8.80;99.90;;;;;;5093472;28;20346;-65
2022/10/19 05:25:41;;;;;;;;;;;8.70;99.90;;;;;;5089903;28;19930;-65
2022/10/19 05:28:08;;;;;;;;;;;8.70;99.90;;;;;;5086860;28;19924;-66
2022/10/19 05:30:37;;;;;;;;;;;8.70;99.90;;;;;;5091732;28;20015;-66
2022/10/19 05:33:04;;;;;;;;;;;8.70;99.90;;;;;;5087202;28;19959;-66
2022/10/19 05:35:31;;;;;;;;;;;8.70;99.90;;;;;;5093676;28;19931;-66
2022/10/19 05:37:57;;;;;;;;;;;8.70;99.90;;;;;;5093102;28;19964;-66
2022/10/19 05:40:24;;;;;;;;;;;8.70;99.90;;;;;;5093368;28;19931;-66
2022/10/19 05:42:51;;;;;;;;;;;8.60;99.90;;;;;;5090396;28;20597;-66
2022/10/19 05:45:17;;;;;;;;;;;8.60;99.90;;;;;;5090396;28;19947;-64
2022/10/19 05:47:45;;;;;;;;;;;8.60;99.90;;;;;;5091847;28;19971;-66
2022/10/19 05:50:12;;;;;;;;;;;8.60;99.90;;;;;;5088236;28;19938;-66
2022/10/19 05:52:39;;;;;;;;;;;8.60;99.90;;;;;;5090421;28;19932;-65
2022/10/19 05:55:06;;;;;;;;;;;8.60;99.90;;;;;;5099225;28;19928;-65
2022/10/19 05:57:33;;;;;;;;;;;8.50;99.90;;;;;;5091682;28;19953;-65
2022/10/19 06:00:00;;;;;;;;;;;8.50;99.90;;;;;;5090163;28;19960;-64
2022/10/19 06:02:26;;;;;;;;;;;8.60;99.90;;;;;;5092670;28;20018;-64
2022/10/19 06:04:54;;;;;;;;;;;8.50;99.90;;;;;;5092574;28;20019;-65
2022/10/19 06:07:21;;;;;;;;;;;8.60;99.90;;;;;;5090048;28;19924;-65
2022/10/19 06:09:48;;;;;;;;;;;8.50;99.90;;;;;;5090432;28;19932;-64
2022/10/19 06:12:14;;;;;;;;;;;8.50;99.90;;;;;;5093222;28;20406;-65
2022/10/19 06:14:41;;;;;;;;;;;8.50;99.90;;;;;;5096953;28;19924;-64
2022/10/19 06:17:08;;;;;;;;;;;8.50;99.90;;;;;;5093920;28;20294;-64
2022/10/19 06:19:35;;;;;;;;;;;8.50;99.90;;;;;;5079123;28;19936;-64
2022/10/19 06:22:03;;;;;;;;;;;8.50;99.90;;;;;;5084903;28;19930;-64
2022/10/19 06:24:30;;;;;;;;;;;8.50;99.90;;;;;;5089786;28;19924;-64
2022/10/19 06:26:56;;;;;;;;;;;8.50;99.90;;;;;;5112909;28;20018;-63
2022/10/19 06:29:23;;;;;;;;;;;8.50;99.90;;;;;;5095119;28;19928;-64
2022/10/19 06:31:50;;;;;;;;;;;8.50;99.90;;;;;;5085221;28;19969;-64
2022/10/19 06:34:17;;;;;;;;;;;8.50;99.90;;;;;;5091768;28;20379;-65
2022/10/19 06:36:44;;;;;;;;;;;8.50;99.90;;;;;;5085873;28;20371;-65
2022/10/19 06:39:13;;;;;;;;;;;8.50;99.90;;;;;;5088075;28;19963;-65
2022/10/19 06:41:40;;;;;;;;;;;8.50;99.90;;;;;;5088289;28;19931;-64
2022/10/19 06:44:06;;;;;;;;;;;8.50;99.90;;;;;;5091043;28;19924;-65
2022/10/19 06:46:33;;;;;;;;;;;8.50;99.90;;;;;;5088470;28;19928;-65
2022/10/19 06:49:01;;;;;;;;;;;8.50;99.90;;;;;;5087246;28;19924;-64
2022/10/19 06:51:29;;;;;;;;;;;8.60;99.90;;;;;;5087567;28;19978;-62
2022/10/19 06:53:56;;;;;;;;;;;8.50;99.90;;;;;;5085425;28;20321;-63
2022/10/19 06:56:24;;;;;;;;;;;8.60;99.90;;;;;;5086647;28;19924;-64
2022/10/19 06:58:51;;;;;;;;;;;8.60;99.90;;;;;;5088563;28;19962;-64
2022/10/19 07:01:18;;;;;;;;;;;8.60;99.90;;;;;;5085374;28;19974;-64
2022/10/19 07:03:45;;;;;;;;;;;8.60;99.90;;;;;;5090381;28;19924;-64
2022/10/19 07:06:12;;;;;;;;;;;8.60;99.90;;;;;;5089079;28;19929;-64
2022/10/19 07:08:40;;;;;;;;;;;8.70;99.90;;;;;;5104006;28;19967;-64
2022/10/19 07:11:07;;;;;;;;;;;8.70;99.90;;;;;;5103842;28;19924;-65
2022/10/19 07:13:36;;;;;;;;;;;8.80;99.90;;;;;;5090941;28;20358;-64
2022/10/19 07:16:05;;;;;;;;;;;8.80;99.90;;;;;;5089332;28;19924;-64
2022/10/19 07:18:32;;;;;;;;;;;8.90;99.90;;;;;;5091281;28;19988;-64
2022/10/19 07:21:00;;;;;;;;;;;8.90;99.90;;;;;;5110867;28;19923;-64
2022/10/19 07:23:27;;;;;;;;;;;8.90;99.90;;;;;;5094702;28;19930;-65
2022/10/19 07:25:59;;;;;;;;;;;9.00;99.90;;;;;;5094047;28;20485;-64
2022/10/19 07:28:26;;;;;;;;;;;9.00;99.90;;;;;;5092297;28;19940;-64
2022/10/19 07:30:54;;;;;;;;;;;9.10;99.90;;;;;;5094629;28;19934;-64
2022/10/19 07:33:22;;;;;;;;;;;9.20;99.90;;;;;;5095160;28;20047;-64
2022/10/19 07:35:49;;;;;;;;;;;9.20;99.90;;;;;;5108231;28;19931;-66
2022/10/19 07:38:16;;;;;;;;;;;9.30;99.90;;;;;;5079712;28;19924;-65
2022/10/19 07:40:42;;;;;;;;;;;9.30;99.90;;;;;;5097257;28;19930;-65
2022/10/19 07:43:09;;;;;;;;;;;9.40;99.90;;;;;;5084434;28;20102;-65
2022/10/19 07:45:36;;;;;;;;;;;9.50;99.90;;;;;;5092401;28;20014;-65
2022/10/19 07:48:05;;;;;;;;;;;9.60;99.90;;;;;;5085074;28;19934;-65
2022/10/19 07:50:32;;;;;;;;;;;9.70;99.90;;;;;;5081048;28;20325;-66
2022/10/19 07:52:59;;;;;;;;;;;9.90;99.90;;;;;;5081630;28;20374;-66
2022/10/19 07:55:25;;;;;;;;;;;10.60;99.90;;;;;;5090232;28;19930;-65
2022/10/19 07:57:52;;;;;;;;;;;11.20;99.90;;;;;;5090335;28;19957;-67
2022/10/19 08:00:19;;;;;;;;;;;11.70;99.90;;;;;;5076686;28;20333;-65
2022/10/19 08:02:46;;;;;;;;;;;11.70;99.90;;;;;;5089684;28;19924;-66
2022/10/19 08:05:14;;;;;;;;;;;11.60;99.90;;;;;;5091120;28;19924;-65
2022/10/19 08:07:40;;;;;;;;;;;11.70;99.90;;;;;;5080543;28;20418;-67
2022/10/19 08:10:08;;;;;;;;;;;11.90;99.90;;;;;;5085352;28;19994;-65
2022/10/19 08:12:35;;;;;;;;;;;12.20;99.90;;;;;;5083427;28;20011;-66
2022/10/19 08:15:01;;;;;;;;;;;12.70;99.90;;;;;;5090849;28;20010;-66
2022/10/19 08:17:29;;;;;;;;;;;12.70;99.90;;;;;;5087741;28;19978;-65
2022/10/19 08:19:56;;;;;;;;;;;13.00;99.90;;;;;;5089244;28;20386;-66
2022/10/19 08:22:25;;;;;;;;;;;13.70;99.90;;;;;;5100134;28;19934;-65
2022/10/19 08:24:52;;;;;;;;;;;13.70;99.90;;;;;;5089527;28;20380;-66
2022/10/19 08:27:18;;;;;;;;;;;13.50;99.90;;;;;;5093904;28;19923;-66
2022/10/19 08:29:45;;;;;;;;;;;13.30;99.90;;;;;;5092211;28;20053;-66
2022/10/19 08:32:12;;;;;;;;;;;13.30;99.90;;;;;;5086469;28;20000;-65
2022/10/19 08:34:39;;;;;;;;;;;13.40;99.90;;;;;;5077103;28;19930;-66
2022/10/19 08:37:06;;;;;;;;;;;13.40;99.90;;;;;;5090863;28;20389;-66
2022/10/19 08:39:34;;;;;;;;;;;13.10;99.90;;;;;;5087767;28;19924;-65
2022/10/19 08:42:03;;;;;;;;;;;12.90;99.90;;;;;;5079882;28;20007;-66
2022/10/19 08:44:39;;;;;;;;;;;12.50;99.90;;;;;;5092878;28;19924;-66
2022/10/19 08:47:11;;;;;;;;;;;12.30;99.90;;;;;;5086631;28;19924;-66
2022/10/19 08:49:37;;;;;;;;;;;12.10;99.90;;;;;;5086616;28;20302;-66
2022/10/19 08:52:06;;;;;;;;;;;12.30;99.90;;;;;;5088371;28;19939;-65
2022/10/19 08:54:40;;;;;;;;;;;12.50;99.90;;;;;;5088532;28;19924;-66
2022/10/19 08:57:13;;;;;;;;;;;12.70;99.90;;;;;;5087183;28;19934;-65
2022/10/19 08:59:44;;;;;;;;;;;13.00;99.90;;;;;;5087202;28;19924;-66
2022/10/19 09:02:14;;;;;;;;;;;13.20;99.90;;;;;;5102608;28;19930;-66
2022/10/19 09:04:42;;;;;;;;;;;13.70;99.90;;;;;;5091537;28;20310;-65
2022/10/19 09:07:21;;;;;;;;;;;14.10;99.90;;;;;;5088864;28;19928;-65
2022/10/19 09:09:51;;;;;;;;;;;14.30;99.90;;;;;;5085948;28;19930;-66
2022/10/19 09:12:19;;;;;;;;;;;14.70;99.90;;;;;;5099833;28;20298;-65
2022/10/19 09:14:51;;;;;;;;;;;14.40;99.90;;;;;;5092408;28;19942;-65
2022/10/19 09:17:18;;;;;;;;;;;14.90;99.90;;;;;;5088745;28;20076;-65
2022/10/19 09:19:45;;;;;;;;;;;14.30;99.90;;;;;;5094187;28;19928;-65
2022/10/19 09:22:14;;;;;;;;;;;13.20;99.90;;;;;;5091672;28;19924;-65
2022/10/19 09:24:43;;;;;;;;;;;12.70;99.90;;;;;;5090734;28;20291;-66
2022/10/19 09:27:16;;;;;;;;;;;12.40;99.90;;;;;;5090639;28;20003;-65
2022/10/19 09:29:45;;;;;;;;;;;12.50;99.90;;;;;;5090112;28;20011;-66
2022/10/19 09:32:13;;;;;;;;;;;12.60;99.90;;;;;;5078748;28;20367;-65
2022/10/19 09:34:42;;;;;;;;;;;12.70;99.90;;;;;;5084725;28;19924;-66
2022/10/19 09:37:11;;;;;;;;;;;12.70;99.90;;;;;;5087944;28;19968;-66
2022/10/19 09:39:37;;;;;;;;;;;12.80;99.90;;;;;;5077905;28;19924;-65
2022/10/19 09:42:07;;;;;;;;;;;12.70;99.90;;;;;;5083689;28;19924;-66
2022/10/19 09:44:35;;;;;;;;;;;12.80;99.90;;;;;;5089350;28;19924;-65
2022/10/19 09:47:05;;;;;;;;;;;12.70;99.90;;;;;;5092000;28;19924;-66
2022/10/19 09:49:40;;;;;;;;;;;12.80;99.90;;;;;;5085121;28;19972;-66
2022/10/19 09:52:21;;;;;;;;;;;13.00;99.90;;;;;;5085733;28;19931;-66
2022/10/19 09:54:50;;;;;;;;;;;13.10;99.90;;;;;;5088598;28;19928;-67
2022/10/19 09:57:19;;;;;;;;;;;13.10;99.90;;;;;;5090425;28;19932;-64
2022/10/19 09:59:50;;;;;;;;;;;13.00;99.90;;;;;;5087625;28;19930;-63
2022/10/19 10:02:18;;;;;;;;;;;13.20;99.90;;;;;;5078263;28;19928;-64
2022/10/19 10:04:45;;;;;;;;;;;13.30;99.90;;;;;;5086475;28;19927;-64
2022/10/19 10:07:16;;;;;;;;;;;13.40;99.90;;;;;;5092319;28;20019;-64
2022/10/19 10:09:43;;;;;;;;;;;13.50;99.90;;;;;;5077883;28;20361;-63
2022/10/19 10:12:12;;;;;;;;;;;13.50;99.90;;;;;;5076676;28;19932;-64
2022/10/19 10:14:39;;;;;;;;;;;13.50;99.90;;;;;;5089209;28;19967;-65
2022/10/19 10:17:13;;;;;;;;;;;13.60;99.90;;;;;;5077144;28;19928;-65
2022/10/19 10:19:49;;;;;;;;;;;13.70;99.90;;;;;;5088922;28;19939;-65
2022/10/19 10:22:24;;;;;;;;;;;13.80;99.90;;;;;;5089595;28;19944;-65
2022/10/19 10:24:52;;;;;;;;;;;14.00;99.90;;;;;;5085114;28;19982;-65
2022/10/19 10:27:25;;;;;;;;;;;14.00;99.90;;;;;;5076577;28;19924;-65
2022/10/19 10:29:54;;;;;;;;;;;14.10;99.90;;;;;;5090101;28;20418;-65
2022/10/19 10:32:23;;;;;;;;;;;14.10;99.90;;;;;;5086857;28;19924;-65
2022/10/19 10:34:55;;;;;;;;;;;14.10;99.90;;;;;;5082636;28;20344;-65
2022/10/19 10:37:24;;;;;;;;;;;14.00;99.90;;;;;;5090589;28;20074;-64
2022/10/19 10:39:51;;;;;;;;;;;14.10;99.90;;;;;;5073865;28;20053;-65
2022/10/19 10:42:20;;;;;;;;;;;14.30;99.90;;;;;;5077841;28;19985;-65
2022/10/19 10:44:48;;;;;;;;;;;14.40;99.90;;;;;;5091058;28;20023;-65
2022/10/19 10:47:16;;;;;;;;;;;14.50;99.90;;;;;;5088974;28;19963;-65
2022/10/19 10:49:55;;;;;;;;;;;14.50;99.90;;;;;;5090817;28;20008;-66
2022/10/19 10:52:22;;;;;;;;;;;14.70;99.90;;;;;;5077516;28;19962;-65
2022/10/19 10:54:57;;;;;;;;;;;14.60;99.90;;;;;;5085355;28;19959;-65
2022/10/19 10:57:25;;;;;;;;;;;14.60;99.90;;;;;;5089067;28;19931;-66
2022/10/19 10:59:54;;;;;;;;;;;14.70;99.90;;;;;;5086838;28;19944;-65
2022/10/19 11:02:28;;;;;;;;;;;14.90;99.90;;;;;;5072564;28;19924;-66
2022/10/19 11:04:58;;;;;;;;;;;14.90;99.90;;;;;;5079687;28;20108;-66
2022/10/19 11:07:28;;;;;;;;;;;14.90;99.90;;;;;;5083618;28;20007;-65
2022/10/19 11:09:57;;;;;;;;;;;15.00;99.90;;;;;;5083478;28;20333;-66
2022/10/19 11:12:31;;;;;;;;;;;15.10;99.90;;;;;;5085287;28;19930;-66
2022/10/19 11:15:04;;;;;;;;;;;15.20;99.90;;;;;;5089946;28;19971;-65
2022/10/19 11:17:33;;;;;;;;;;;15.30;99.90;;;;;;5088425;28;19931;-64
2022/10/19 11:20:01;;;;;;;;;;;15.30;99.90;;;;;;5081201;28;19924;-65
2022/10/19 11:22:29;;;;;;;;;;;15.30;99.90;;;;;;5084945;28;20003;-67
2022/10/19 11:25:06;;;;;;;;;;;15.30;99.90;;;;;;5075922;28;19924;-66
2022/10/19 11:27:38;;;;;;;;;;;15.40;99.90;;;;;;5083543;28;19958;-65
2022/10/19 11:30:10;;;;;;;;;;;15.60;99.90;;;;;;5082771;28;19923;-65
2022/10/19 11:32:45;;;;;;;;;;;15.50;99.90;;;;;;5084340;28;20011;-65
2022/10/19 11:35:26;;;;;;;;;;;15.30;99.90;;;;;;5076784;28;19931;-65
2022/10/19 11:37:57;;;;;;;;;;;15.40;99.90;;;;;;5083364;28;20466;-66
2022/10/19 11:40:27;;;;;;;;;;;15.50;99.90;;;;;;5095055;28;19998;-64
2022/10/19 11:42:57;;;;;;;;;;;15.50;99.90;;;;;;5082515;28;19926;-65
2022/10/19 11:45:37;;;;;;;;;;;15.60;99.90;;;;;;5087135;28;20023;-65
2022/10/19 11:48:13;;;;;;;;;;;15.50;99.90;;;;;;5085837;28;20222;-65
2022/10/19 11:50:52;;;;;;;;;;;15.50;99.90;;;;;;5082385;28;20196;-66
2022/10/19 11:53:23;;;;;;;;;;;15.50;99.90;;;;;;5086613;28;20454;-65
2022/10/19 11:55:56;;;;;;;;;;;15.50;99.90;;;;;;5094995;28;20320;-64
2022/10/19 11:58:29;;;;;;;;;;;15.50;99.90;;;;;;5079772;28;20434;-65
2022/10/19 12:00:59;;;;;;;;;;;15.50;99.90;;;;;;5087591;28;19947;-66
2022/10/19 12:03:40;;;;;;;;;;;15.60;99.90;;;;;;5081944;28;19930;-66
2022/10/19 12:06:14;;;;;;;;;;;15.70;99.90;;;;;;5081606;28;19924;-66
2022/10/19 12:08:50;;;;;;;;;;;15.80;99.90;;;;;;5086447;28;20450;-67
2022/10/19 12:11:23;;;;;;;;;;;15.80;99.90;;;;;;5086355;28;20290;-66
2022/10/19 12:13:52;;;;;;;;;;;15.80;99.90;;;;;;5086242;28;19931;-66
2022/10/19 12:16:20;;;;;;;;;;;15.80;99.90;;;;;;5086985;28;19932;-65
2022/10/19 12:18:48;;;;;;;;;;;15.80;99.90;;;;;;5088240;28;19928;-66
2022/10/19 12:21:19;;;;;;;;;;;15.90;99.90;;;;;;5086912;28;20014;-65
2022/10/19 12:23:49;;;;;;;;;;;16.00;99.90;;;;;;5086589;28;19928;-66
2022/10/19 12:26:16;;;;;;;;;;;16.00;99.90;;;;;;5086289;28;19931;-66
2022/10/19 12:28:47;;;;;;;;;;;15.90;99.90;;;;;;5089771;28;19924;-65
2022/10/19 12:31:15;;;;;;;;;;;15.90;99.90;;;;;;5085368;28;20286;-67
2022/10/19 12:33:46;;;;;;;;;;;16.00;99.90;;;;;;5090365;28;20345;-66
2022/10/19 12:36:19;;;;;;;;;;;16.10;99.90;;;;;;5088412;28;19924;-65
2022/10/19 12:38:50;;;;;;;;;;;16.10;99.90;;;;;;5079273;28;19986;-65
2022/10/19 12:41:21;;;;;;;;;;;16.20;99.90;;;;;;5104634;28;20386;-65
2022/10/19 12:43:56;;;;;;;;;;;16.30;99.90;;;;;;5087831;28;20032;-66
2022/10/19 12:46:27;;;;;;;;;;;16.30;99.90;;;;;;5081688;28;20264;-67
2022/10/19 12:49:15;;;;;;;;;;;16.30;99.90;;;;;;5083297;28;19925;-67
2022/10/19 12:51:46;;;;;;;;;;;16.40;99.90;;;;;;5084651;28;19924;-66
2022/10/19 12:54:13;;;;;;;;;;;16.30;99.90;;;;;;5076903;28;19946;-66
2022/10/19 12:56:46;;;;;;;;;;;16.40;99.90;;;;;;5091559;28;20431;-66
2022/10/19 12:59:20;;;;;;;;;;;16.60;99.90;;;;;;5082941;28;20011;-65
2022/10/19 13:01:47;;;;;;;;;;;16.80;99.90;;;;;;5078911;28;20018;-66
2022/10/19 13:04:16;;;;;;;;;;;16.80;99.90;;;;;;5083190;28;20023;-67
2022/10/19 13:06:43;;;;;;;;;;;16.90;99.90;;;;;;5089644;28;19924;-67
2022/10/19 13:09:23;;;;;;;;;;;16.80;99.90;;;;;;5082162;28;20401;-65
2022/10/19 13:12:13;;;;;;;;;;;16.80;99.90;;;;;;5080041;28;19938;-66
2022/10/19 13:14:42;;;;;;;;;;;16.90;99.90;;;;;;5065303;28;19942;-67
2022/10/19 13:17:08;;;;;;;;;;;16.90;99.90;;;;;;5087625;28;19930;-66
2022/10/19 13:19:36;;;;;;;;;;;16.90;99.90;;;;;;5084757;28;19924;-66
2022/10/19 13:22:24;;;;;;;;;;;16.70;99.90;;;;;;5088166;28;19971;-66
2022/10/19 13:25:25;;;;;;;;;;;16.80;99.90;;;;;;5078094;28;19931;-65
2022/10/19 13:27:54;;;;;;;;;;;16.80;99.90;;;;;;5051480;28;19928;-66
2022/10/19 13:30:54;;;;;;;;;;;16.80;99.90;;;;;;5053141;28;20592;-67
2022/10/19 13:33:44;;;;;;;;;;;16.80;99.90;;;;;;5046256;28;20413;-66
2022/10/19 13:36:13;;;;;;;;;;;16.70;99.90;;;;;;5036315;28;19925;-66
2022/10/19 13:38:41;;;;;;;;;;;16.60;99.90;;;;;;5079059;28;19931;-66
2022/10/19 13:41:13;;;;;;;;;;;16.60;99.90;;;;;;5077687;28;19971;-67
2022/10/19 13:43:50;;;;;;;;;;;16.70;99.90;;;;;;5081404;28;20355;-66
2022/10/19 13:46:19;;;;;;;;;;;16.70;99.90;;;;;;5084400;28;20310;-67
2022/10/19 13:49:04;;;;;;;;;;;16.70;99.90;;;;;;5085071;28;19924;-66
2022/10/19 13:51:34;;;;;;;;;;;16.60;99.90;;;;;;5085600;28;20278;-66
2022/10/19 13:54:06;;;;;;;;;;;16.60;99.90;;;;;;5080997;28;19930;-67
2022/10/19 13:56:37;;;;;;;;;;;16.60;99.90;;;;;;5084668;28;19938;-67
2022/10/19 13:59:17;;;;;;;;;;;16.60;99.90;;;;;;5089130;28;20027;-67
2022/10/19 14:01:51;;;;;;;;;;;16.60;99.90;;;;;;5082906;28;19927;-66
2022/10/19 14:04:21;;;;;;;;;;;16.60;99.90;;;;;;5087111;28;20391;-66
2022/10/19 14:06:52;;;;;;;;;;;16.50;99.90;;;;;;5087688;28;19934;-67
2022/10/19 14:09:39;;;;;;;;;;;16.50;99.90;;;;;;5086982;28;19924;-66
2022/10/19 14:12:07;;;;;;;;;;;16.50;99.90;;;;;;5058918;28;20000;-65
2022/10/19 14:14:42;;;;;;;;;;;16.60;99.90;;;;;;5082829;28;20046;-65
2022/10/19 14:17:17;;;;;;;;;;;16.50;99.90;;;;;;5085107;28;20279;-65
2022/10/19 14:19:44;;;;;;;;;;;16.50;99.90;;;;;;5085905;28;19932;-66
2022/10/19 14:22:19;;;;;;;;;;;16.50;99.90;;;;;;5088338;28;19928;-66
2022/10/19 14:24:46;;;;;;;;;;;16.30;99.90;;;;;;5092067;28;19930;-66
2022/10/19 14:27:16;;;;;;;;;;;16.30;99.90;;;;;;5093892;28;20019;-65
2022/10/19 14:29:45;;;;;;;;;;;16.20;99.90;;;;;;5094476;28;20450;-65
2022/10/19 14:32:12;;;;;;;;;;;16.30;99.90;;;;;;5097927;28;20371;-66
2022/10/19 14:34:39;;;;;;;;;;;16.20;99.90;;;;;;5099428;28;19923;-66
2022/10/19 14:37:12;;;;;;;;;;;16.20;99.90;;;;;;5093600;28;19924;-65
2022/10/19 14:39:39;;;;;;;;;;;16.20;99.90;;;;;;5092003;28;19924;-66